Time;durP1;ratioP1;P1;durP2;ratioP2;P2;SDS_P1;SDS_P2;PMS_P1;PMS_P2;Temp;Humidity;BMP_temperature;BMP_pressure;BME280_temperature;BME280_humidity;BME280_pressure;Samples;Min_cycle;Max_cycle;Signal;HPM_P1;HPM_P2
2022/07/12 00:02:56;;;;;;;1.65;0.98;;;28.10;57.80;;;;;;10938627;32;20089;-71
2022/07/12 00:08:58;;;;;;;1.08;0.70;;;28.10;57.90;;;;;;10924655;32;20304;-71
2022/07/12 00:15:00;;;;;;;2.75;1.00;;;28.00;58.10;;;;;;10938169;32;20351;-72
2022/07/12 00:21:02;;;;;;;0.93;0.80;;;28.00;58.40;;;;;;10938166;32;20045;-71
2022/07/12 00:27:04;;;;;;;2.45;0.70;;;28.00;58.50;;;;;;10938065;32;20023;-72
2022/07/12 00:33:06;;;;;;;0.82;0.65;;;28.00;58.40;;;;;;10938333;32;20077;-71
2022/07/12 00:39:08;;;;;;;0.73;0.60;;;28.00;58.60;;;;;;10937662;32;20027;-71
2022/07/12 00:45:10;;;;;;;4.43;0.95;;;28.00;58.70;;;;;;10938505;32;20327;-71
2022/07/12 00:51:13;;;;;;;1.77;1.10;;;28.00;58.80;;;;;;10924452;32;20031;-71
2022/07/12 00:57:15;;;;;;;1.20;0.70;;;27.90;58.90;;;;;;10938062;32;20027;-71
2022/07/12 01:03:18;;;;;;;3.15;1.10;;;27.90;58.80;;;;;;10939814;32;20061;-71
2022/07/12 01:09:20;;;;;;;2.58;0.82;;;27.80;59.20;;;;;;10937177;32;20030;-72
2022/07/12 01:15:23;;;;;;;1.58;0.85;;;27.80;59.40;;;;;;10938417;32;20030;-71
2022/07/12 01:21:31;;;;;;;2.92;1.12;;;27.80;59.40;;;;;;10943613;32;20343;-71
2022/07/12 01:28:20;;;;;;;1.48;0.80;;;27.80;59.30;;;;;;10944320;32;20032;-71
2022/07/12 01:34:23;;;;;;;2.80;1.02;;;27.80;59.00;;;;;;10943802;32;20034;-71
2022/07/12 01:40:25;;;;;;;1.33;0.95;;;27.80;59.00;;;;;;10944036;32;20034;-71
2022/07/12 01:46:27;;;;;;;3.40;1.00;;;27.80;59.30;;;;;;10929975;32;20027;-71
2022/07/12 01:52:30;;;;;;;1.58;1.20;;;27.70;59.30;;;;;;10943143;32;20061;-71
2022/07/12 01:58:32;;;;;;;1.17;0.82;;;27.80;59.10;;;;;;10943581;32;20026;-71
2022/07/12 02:04:35;;;;;;;5.82;1.40;;;27.70;59.20;;;;;;10930401;32;20061;-71
2022/07/12 02:10:37;;;;;;;1.62;1.30;;;27.70;59.40;;;;;;10943029;32;20031;-71
2022/07/12 02:16:43;;;;;;;2.17;1.50;;;27.50;59.80;;;;;;10942534;32;20030;-71
2022/07/12 02:22:45;;;;;;;2.50;1.35;;;27.40;60.00;;;;;;10944355;32;20026;-71
2022/07/12 02:28:48;;;;;;;2.53;1.27;;;27.30;60.10;;;;;;10945229;32;20026;-72
2022/07/12 02:34:50;;;;;;;1.95;1.33;;;27.30;60.40;;;;;;10942809;32;20034;-72
2022/07/12 02:40:55;;;;;;;0.80;0.70;;;27.20;60.50;;;;;;10941769;32;20054;-71
2022/07/12 02:47:23;;;;;;;1.30;0.80;;;27.20;60.40;;;;;;10942576;32;20332;-71
2022/07/12 02:59:55;;;;;;;1.37;1.02;;;27.10;60.60;;;;;;10945299;32;20030;-72
2022/07/12 03:05:58;;;;;;;1.00;0.85;;;27.00;60.90;;;;;;10940862;32;20053;-71
2022/07/12 03:12:00;;;;;;;0.75;0.57;;;27.00;60.80;;;;;;10942437;32;20342;-72
2022/07/12 03:18:02;;;;;;;1.25;0.82;;;27.00;60.80;;;;;;10940822;32;20056;-71
2022/07/12 03:24:33;;;;;;;1.85;0.98;;;26.90;61.00;;;;;;10939985;32;20421;-71
2022/07/12 03:30:36;;;;;;;2.55;1.10;;;27.00;60.80;;;;;;10533854;32;12163811;-71
2022/07/12 03:36:56;;;;;;;0.82;0.70;;;27.00;60.90;;;;;;10861737;32;20384;-71
2022/07/12 03:43:06;;;;;;;0.93;0.80;;;27.00;61.00;;;;;;10860677;32;20035;-71
2022/07/12 03:49:08;;;;;;;2.17;1.27;;;27.00;60.90;;;;;;10860938;32;20035;-71
2022/07/12 03:55:11;;;;;;;3.47;1.27;;;27.00;60.90;;;;;;10882192;32;20038;-71
2022/07/12 04:01:32;;;;;;;1.25;0.85;;;26.90;61.10;;;;;;10939368;32;20031;-71
2022/07/12 04:07:36;;;;;;;1.98;0.85;;;26.80;61.30;;;;;;10938507;32;20053;-72
2022/07/12 04:13:38;;;;;;;2.12;0.98;;;26.80;61.40;;;;;;10938402;32;20031;-72
2022/07/12 04:19:40;;;;;;;1.37;0.95;;;26.80;61.40;;;;;;10924913;32;20031;-72
2022/07/12 04:25:42;;;;;;;1.37;1.12;;;26.80;61.50;;;;;;10939742;32;20045;-71
2022/07/12 04:31:44;;;;;;;1.30;1.08;;;26.80;61.60;;;;;;10997415;27;20326;-71
2022/07/12 04:37:47;;;;;;;1.50;0.88;;;26.80;61.70;;;;;;11013491;32;20026;-71
2022/07/12 04:43:49;;;;;;;1.30;0.62;;;26.70;61.80;;;;;;11015930;32;20037;-72
2022/07/12 04:49:51;;;;;;;1.08;0.85;;;26.70;62.00;;;;;;11013392;32;20044;-71
2022/07/12 04:55:58;;;;;;;2.83;1.65;;;26.70;61.90;;;;;;11018987;32;20029;-72
2022/07/12 05:02:03;;;;;;;1.40;0.95;;;26.80;61.80;;;;;;11007407;32;20409;-71
2022/07/12 05:08:05;;;;;;;1.33;1.23;;;26.80;61.70;;;;;;11023193;32;20015;-71
2022/07/12 05:14:07;;;;;;;2.03;1.45;;;26.90;61.80;;;;;;11021549;32;20416;-71
2022/07/12 05:20:25;;;;;;;2.85;1.67;;;27.00;61.70;;;;;;11021301;32;20018;-72
2022/07/12 05:26:28;;;;;;;1.83;1.17;;;27.00;61.60;;;;;;11020210;32;20050;-72
2022/07/12 05:32:30;;;;;;;2.72;1.73;;;27.00;61.70;;;;;;11021505;32;20019;-72
2022/07/12 05:38:32;;;;;;;2.60;1.30;;;26.90;61.90;;;;;;11021468;32;20026;-71
2022/07/12 05:44:35;;;;;;;1.10;1.00;;;26.70;62.10;;;;;;11019460;32;20018;-71
2022/07/12 05:50:47;;;;;;;3.05;1.17;;;26.80;62.00;;;;;;11019162;32;20023;-71
2022/07/12 05:56:50;;;;;;;1.10;1.00;;;27.00;61.50;;;;;;11014055;32;20358;-71
2022/07/12 06:02:53;;;;;;;1.55;1.00;;;27.30;61.00;;;;;;10992511;32;20053;-71
2022/07/12 06:08:56;;;;;;;0.70;0.70;;;27.60;60.40;;;;;;10980166;32;20019;-70
2022/07/12 06:14:58;;;;;;;3.55;1.87;;;27.70;60.10;;;;;;10980968;32;20030;-70
2022/07/12 06:21:00;;;;;;;3.15;0.75;;;27.80;59.70;;;;;;10981188;32;20026;-70
2022/07/12 06:27:03;;;;;;;1.50;0.98;;;27.90;59.60;;;;;;10979991;32;20092;-70
2022/07/12 06:33:05;;;;;;;1.60;1.17;;;28.20;59.30;;;;;;10966010;32;20018;-71
2022/07/12 06:39:07;;;;;;;1.45;0.95;;;28.30;58.90;;;;;;10965890;32;20053;-70
2022/07/12 06:45:10;;;;;;;3.37;0.98;;;28.50;58.60;;;;;;10979040;32;20046;-71
2022/07/12 06:51:13;;;;;;;1.33;0.60;;;28.60;58.00;;;;;;10964737;32;20026;-70
2022/07/12 06:57:15;;;;;;;1.37;0.90;;;28.60;57.80;;;;;;10978574;32;20030;-70
2022/07/12 07:03:17;;;;;;;1.65;0.70;;;28.70;57.40;;;;;;10979959;32;20089;-71
2022/07/12 07:09:19;;;;;;;1.15;0.98;;;28.70;57.10;;;;;;10979548;32;20015;-70
2022/07/12 07:15:22;;;;;;;1.25;1.05;;;28.80;57.20;;;;;;10978156;32;20388;-71
2022/07/12 07:21:24;;;;;;;1.27;0.90;;;28.80;57.00;;;;;;10978126;32;20022;-69
2022/07/12 07:27:27;;;;;;;5.03;1.62;;;28.80;56.80;;;;;;10977453;32;20026;-69
2022/07/12 07:33:29;;;;;;;0.75;0.70;;;28.80;56.90;;;;;;10978024;32;20038;-70
2022/07/12 07:39:31;;;;;;;1.95;1.37;;;28.80;56.60;;;;;;10977395;32;20331;-71
2022/07/12 07:45:34;;;;;;;1.98;1.15;;;28.90;56.30;;;;;;10977089;32;20406;-68
2022/07/12 07:51:36;;;;;;;1.30;0.82;;;29.10;56.10;;;;;;10963053;32;20042;-70
2022/07/12 07:57:38;;;;;;;1.10;0.75;;;29.30;55.70;;;;;;10962995;32;20091;-71
2022/07/12 08:03:40;;;;;;;1.55;1.00;;;29.40;55.60;;;;;;10976788;32;20050;-70
2022/07/12 08:09:42;;;;;;;2.25;0.95;;;29.50;54.50;;;;;;10976170;32;20387;-71
2022/07/12 08:15:44;;;;;;;2.25;0.88;;;29.70;53.60;;;;;;10976088;32;20026;-68
2022/07/12 08:21:47;;;;;;;11.80;1.58;;;29.80;52.70;;;;;;10976261;32;20049;-70
2022/07/12 08:27:49;;;;;;;1.20;0.65;;;29.70;53.10;;;;;;10975156;32;20587;-70
2022/07/12 08:34:14;;;;;;;2.00;0.98;;;29.60;53.20;;;;;;10975439;32;20030;-71
2022/07/12 08:40:41;;;;;;;2.15;1.15;;;29.80;52.80;;;;;;10975808;32;20045;-71
2022/07/12 08:46:47;;;;;;;1.02;0.70;;;30.00;52.10;;;;;;10976306;32;20031;-71
2022/07/12 08:52:51;;;;;;;1.52;0.88;;;30.00;51.60;;;;;;10975124;32;20026;-69
2022/07/12 08:59:23;;;;;;;1.60;1.05;;;30.00;51.30;;;;;;10975724;32;20030;-70
2022/07/12 09:05:30;;;;;;;2.10;0.80;;;30.10;50.80;;;;;;10822423;32;20098;-70
2022/07/12 09:11:33;;;;;;;1.70;0.88;;;30.20;50.90;;;;;;10821319;32;20333;-70
2022/07/12 09:17:47;;;;;;;2.25;1.10;;;30.30;50.30;;;;;;10808635;33;20059;-68
2022/07/12 09:23:56;;;;;;;1.48;0.98;;;30.10;50.50;;;;;;10821925;33;20434;-70
2022/07/12 09:30:00;;;;;;;6.68;1.40;;;30.30;49.80;;;;;;10821515;33;20016;-71
2022/07/12 09:36:06;;;;;;;0.45;0.30;;;30.60;49.40;;;;;;10821007;33;20050;-70
2022/07/12 09:42:10;;;;;;;0.80;0.50;;;30.70;48.50;;;;;;10959376;32;20057;-71
2022/07/12 09:48:13;;;;;;;0.62;0.47;;;30.80;47.90;;;;;;10981656;32;20060;-68
2022/07/12 09:54:25;;;;;;;1.35;0.77;;;30.80;47.90;;;;;;10981362;32;20053;-71
2022/07/12 10:00:29;;;;;;;1.17;0.88;;;30.90;47.40;;;;;;10980660;32;20038;-70
2022/07/12 10:06:33;;;;;;;2.10;1.12;;;31.00;47.80;;;;;;10980163;32;20034;-70
2022/07/12 10:12:36;;;;;;;1.87;0.95;;;31.10;46.50;;;;;;10983458;32;20411;-71
2022/07/12 10:18:38;;;;;;;1.33;1.02;;;31.30;46.10;;;;;;10994323;32;20041;-71
2022/07/12 10:24:45;;;;;;;2.03;1.10;;;31.30;45.90;;;;;;11004860;32;20053;-68
2022/07/12 10:30:52;;;;;;;1.12;1.00;;;31.30;45.30;;;;;;11017727;32;20022;-70
2022/07/12 10:36:57;;;;;;;1.85;0.98;;;31.30;44.50;;;;;;11018240;32;20048;-70
2022/07/12 10:43:03;;;;;;;1.27;0.90;;;31.40;45.60;;;;;;11018259;32;20022;-70
2022/07/12 10:49:46;;;;;;;1.02;0.73;;;31.60;45.80;;;;;;11004144;32;20041;-70
2022/07/12 10:56:24;;;;;;;0.90;0.70;;;31.80;46.40;;;;;;10813078;33;20090;-71
2022/07/12 11:02:33;;;;;;;2.28;1.08;;;32.10;45.40;;;;;;10680074;33;20037;-68
2022/07/12 11:09:01;;;;;;;2.00;1.15;;;32.40;44.70;;;;;;10679848;33;20055;-69
2022/07/12 11:15:04;;;;;;;3.87;1.33;;;32.40;43.70;;;;;;10678779;33;20072;-71
2022/07/12 11:21:06;;;;;;;3.42;1.50;;;32.50;44.10;;;;;;10679451;33;20310;-68
2022/07/12 11:27:13;;;;;;;4.62;0.93;;;32.80;43.70;;;;;;10694866;33;20054;-71
2022/07/12 11:33:36;;;;;;;2.40;1.50;;;33.20;43.00;;;;;;10828420;32;20027;-72
2022/07/12 11:39:40;;;;;;;0.98;0.90;;;33.40;41.90;;;;;;11015337;32;20437;-69
2022/07/12 11:45:43;;;;;;;2.08;1.05;;;33.30;42.00;;;;;;10990016;32;20049;-68
2022/07/12 11:51:46;;;;;;;1.42;1.05;;;33.40;42.50;;;;;;10979594;32;20077;-70
2022/07/12 11:57:48;;;;;;;1.23;0.88;;;33.70;42.30;;;;;;10989029;32;20052;-71
2022/07/12 12:03:51;;;;;;;2.08;1.00;;;33.90;42.20;;;;;;10994096;32;20414;-71
2022/07/12 12:10:19;;;;;;;2.22;1.25;;;34.20;41.60;;;;;;11004563;32;20104;-71
2022/07/12 12:16:51;;;;;;;1.65;0.85;;;34.30;41.30;;;;;;11014222;32;20334;-69
2022/07/12 12:22:59;;;;;;;2.28;1.00;;;34.40;41.10;;;;;;11014937;32;20022;-70
2022/07/12 12:29:02;;;;;;;1.30;1.05;;;34.50;40.80;;;;;;10992275;27;20031;-71
2022/07/12 12:35:06;;;;;;;3.40;1.33;;;34.70;40.70;;;;;;10901717;32;20023;-71
2022/07/12 12:41:09;;;;;;;1.65;1.12;;;34.70;40.60;;;;;;10886956;32;20053;-71
2022/07/12 12:47:31;;;;;;;1.83;1.33;;;34.40;40.80;;;;;;10901196;32;20524;-71
2022/07/12 12:53:33;;;;;;;1.10;0.80;;;33.80;42.00;;;;;;10888205;32;20027;-70
2022/07/12 12:59:36;;;;;;;1.58;1.02;;;33.80;42.00;;;;;;10899906;32;20011;-70
2022/07/12 13:05:40;;;;;;;1.87;1.17;;;34.00;41.50;;;;;;10886480;32;20023;-70
2022/07/12 13:11:42;;;;;;;1.70;1.15;;;33.80;41.70;;;;;;10902428;32;20023;-71
2022/07/12 13:17:45;;;;;;;1.67;0.93;;;33.50;42.10;;;;;;10892790;32;20015;-70
2022/07/12 13:23:51;;;;;;;10.68;1.40;;;33.30;42.90;;;;;;10910132;32;20042;-68
2022/07/12 13:29:53;;;;;;;1.02;0.85;;;33.40;42.60;;;;;;10894227;32;20011;-71
2022/07/12 13:35:56;;;;;;;1.25;0.70;;;33.60;42.40;;;;;;10893403;32;20053;-71
2022/07/12 13:41:59;;;;;;;1.48;0.80;;;33.40;42.20;;;;;;10905379;32;20073;-71
2022/07/12 13:48:02;;;;;;;4.12;0.98;;;33.50;42.10;;;;;;10906257;32;20015;-71
2022/07/12 13:54:04;;;;;;;2.33;1.10;;;33.60;42.00;;;;;;10905721;32;20327;-71
2022/07/12 14:00:13;;;;;;;1.55;1.05;;;33.70;41.60;;;;;;10906757;32;20053;-67
2022/07/12 14:06:15;;;;;;;0.93;0.77;;;33.70;41.60;;;;;;10893596;32;20019;-71
2022/07/12 14:12:18;;;;;;;1.00;0.80;;;33.60;41.70;;;;;;10907476;32;20035;-68
2022/07/12 14:18:20;;;;;;;1.75;1.17;;;33.70;41.10;;;;;;10905426;32;20061;-71
2022/07/12 14:24:23;;;;;;;2.75;1.33;;;33.60;41.40;;;;;;10893969;32;20023;-71
2022/07/12 14:30:26;;;;;;;0.73;0.73;;;33.40;41.80;;;;;;10891085;32;20328;-71
2022/07/12 14:36:28;;;;;;;1.00;0.90;;;33.40;42.00;;;;;;10904222;32;20031;-71
2022/07/12 14:42:32;;;;;;;1.37;0.80;;;33.30;42.60;;;;;;10904479;32;20015;-72
2022/07/12 14:48:41;;;;;;;4.75;1.17;;;33.00;43.30;;;;;;10903520;32;20034;-71
2022/07/12 14:54:44;;;;;;;1.27;0.70;;;32.90;43.10;;;;;;10905258;32;20388;-70
2022/07/12 15:00:46;;;;;;;2.12;0.80;;;32.90;43.50;;;;;;10903925;32;20046;-71
2022/07/12 15:07:09;;;;;;;0.88;0.65;;;32.90;43.10;;;;;;10903339;32;20051;-71
2022/07/12 15:13:11;;;;;;;0.75;0.70;;;33.00;42.70;;;;;;10903064;32;20018;-70
2022/07/12 15:19:15;;;;;;;0.93;0.70;;;33.10;42.30;;;;;;10890226;32;20023;-71
2022/07/12 15:25:37;;;;;;;3.40;1.00;;;33.10;42.30;;;;;;10903661;32;20422;-71
2022/07/12 15:31:39;;;;;;;0.85;0.40;;;33.10;42.60;;;;;;10902600;32;20453;-71
2022/07/12 15:37:41;;;;;;;1.77;1.00;;;32.80;43.00;;;;;;10904604;32;20049;-71
2022/07/12 15:43:43;;;;;;;0.60;0.60;;;32.70;43.50;;;;;;10902332;32;20384;-71
2022/07/12 15:49:46;;;;;;;2.33;0.90;;;32.30;44.20;;;;;;10903669;32;20046;-71
2022/07/12 15:55:48;;;;;;;1.00;0.62;;;32.30;44.10;;;;;;10905078;32;20019;-71
2022/07/12 16:01:50;;;;;;;5.30;1.30;;;32.50;43.70;;;;;;10887856;32;20117;-71
2022/07/12 16:07:53;;;;;;;0.70;0.47;;;32.50;43.80;;;;;;10903163;32;20061;-71
2022/07/12 16:13:55;;;;;;;1.50;0.88;;;32.60;43.60;;;;;;10902066;32;20039;-70
2022/07/12 16:20:16;;;;;;;1.65;0.77;;;32.50;43.60;;;;;;10903120;32;20023;-72
2022/07/12 16:26:19;;;;;;;0.68;0.68;;;32.30;43.80;;;;;;10900961;32;20033;-71
2022/07/12 16:32:22;;;;;;;2.05;1.10;;;32.00;44.30;;;;;;10901086;32;20053;-72
2022/07/12 16:38:26;;;;;;;3.00;0.77;;;31.80;44.80;;;;;;10887579;32;20023;-70
2022/07/12 16:44:29;;;;;;;1.75;1.05;;;31.60;45.10;;;;;;10900437;32;20031;-71
2022/07/12 16:50:31;;;;;;;2.15;1.00;;;31.40;45.70;;;;;;10893823;32;20019;-74
2022/07/12 16:56:34;;;;;;;1.42;0.73;;;31.30;46.00;;;;;;10903097;32;20026;-73
2022/07/12 17:02:37;;;;;;;1.77;0.75;;;31.10;46.90;;;;;;10915840;32;20046;-73
2022/07/12 17:08:40;;;;;;;1.23;0.62;;;31.00;47.50;;;;;;10902979;32;20059;-72
2022/07/12 17:14:42;;;;;;;2.10;0.73;;;31.10;47.40;;;;;;10902695;32;20049;-73
2022/07/12 17:20:44;;;;;;;3.35;1.08;;;31.00;47.40;;;;;;10916092;32;20019;-73
2022/07/12 17:27:06;;;;;;;1.27;0.77;;;30.90;47.80;;;;;;10889708;32;20062;-73
2022/07/12 17:33:10;;;;;;;0.85;0.57;;;30.90;47.90;;;;;;10878140;32;20019;-73
2022/07/12 17:39:15;;;;;;;0.88;0.57;;;30.90;48.10;;;;;;10860930;32;20050;-74
2022/07/12 17:45:18;;;;;;;0.98;0.68;;;30.90;48.10;;;;;;10865109;32;20050;-73
2022/07/12 17:51:20;;;;;;;0.95;0.70;;;30.90;48.20;;;;;;10877933;32;20055;-73
2022/07/12 17:57:23;;;;;;;0.40;0.40;;;30.90;48.10;;;;;;10879109;32;20081;-73
2022/07/12 18:03:25;;;;;;;0.55;0.55;;;30.90;48.20;;;;;;10878879;32;20050;-73
2022/07/12 18:09:27;;;;;;;0.88;0.55;;;31.00;48.50;;;;;;10908966;32;20042;-73
2022/07/12 18:15:30;;;;;;;0.88;0.50;;;31.00;48.70;;;;;;10909254;32;20054;-73
2022/07/12 18:21:45;;;;;;;0.85;0.52;;;31.00;48.90;;;;;;10891340;32;20042;-71
2022/07/12 18:27:47;;;;;;;1.15;0.50;;;30.90;48.80;;;;;;10891139;32;20045;-71
2022/07/12 18:34:08;;;;;;;1.10;0.75;;;30.90;49.10;;;;;;10891358;32;20054;-71
2022/07/12 18:40:10;;;;;;;0.50;0.50;;;30.80;49.30;;;;;;10892654;32;20399;-71
2022/07/12 18:46:26;;;;;;;2.95;0.35;;;30.70;49.70;;;;;;10890613;32;20023;-71
2022/07/12 18:52:28;;;;;;;0.98;0.50;;;30.60;49.80;;;;;;10877491;32;20062;-71
2022/07/12 18:58:31;;;;;;;0.45;0.45;;;30.50;50.10;;;;;;10903183;32;20054;-71
2022/07/12 19:04:33;;;;;;;2.37;0.88;;;30.40;50.40;;;;;;10892770;32;20051;-71
2022/07/12 19:10:35;;;;;;;0.57;0.55;;;30.40;50.60;;;;;;10868902;32;20054;-71
2022/07/12 19:16:38;;;;;;;1.55;0.93;;;30.30;50.60;;;;;;10853402;32;20053;-71
2022/07/12 19:22:45;;;;;;;1.75;0.82;;;30.30;50.70;;;;;;10881045;32;20067;-71
2022/07/12 19:28:47;;;;;;;1.35;0.80;;;30.20;50.80;;;;;;10868754;32;20344;-71
2022/07/12 19:34:50;;;;;;;1.20;0.70;;;30.00;51.20;;;;;;10861044;32;20059;-71
2022/07/12 19:40:52;;;;;;;5.60;1.08;;;29.90;51.60;;;;;;10873379;32;20035;-71
2022/07/12 19:46:54;;;;;;;3.33;0.68;;;29.80;51.70;;;;;;10874014;32;20045;-71
2022/07/12 19:52:58;;;;;;;1.52;0.65;;;29.80;52.10;;;;;;10897377;32;20030;-71
2022/07/12 19:59:01;;;;;;;0.70;0.55;;;29.80;52.40;;;;;;10882785;32;20081;-71
2022/07/12 20:05:03;;;;;;;3.00;0.82;;;29.70;52.60;;;;;;10885369;32;20028;-71
2022/07/12 20:11:15;;;;;;;1.37;0.80;;;29.60;52.80;;;;;;10872969;32;20054;-71
2022/07/12 20:17:17;;;;;;;2.08;1.10;;;29.60;52.80;;;;;;10892364;32;20065;-71
2022/07/12 20:23:19;;;;;;;1.65;0.90;;;29.50;53.00;;;;;;10885266;32;20153;-71
2022/07/12 20:29:22;;;;;;;3.72;0.93;;;29.50;53.10;;;;;;10909244;27;20039;-71
2022/07/12 20:35:24;;;;;;;2.47;0.98;;;29.50;53.30;;;;;;10951337;32;20073;-71
2022/07/12 20:41:27;;;;;;;2.90;1.33;;;29.40;53.70;;;;;;10938644;32;20030;-71
2022/07/12 20:47:30;;;;;;;1.55;0.82;;;29.30;53.70;;;;;;10940963;32;20454;-71
2022/07/12 20:53:33;;;;;;;3.92;0.98;;;29.30;54.30;;;;;;10953339;32;20061;-71
2022/07/12 20:59:35;;;;;;;0.68;0.55;;;29.20;55.10;;;;;;10964552;32;20331;-71
2022/07/12 21:05:38;;;;;;;1.55;0.82;;;29.20;55.60;;;;;;10957871;32;20022;-71
2022/07/12 21:11:40;;;;;;;0.80;0.50;;;29.10;55.40;;;;;;10946383;32;20528;-71
2022/07/12 21:17:46;;;;;;;1.58;1.20;;;29.00;55.30;;;;;;10962339;32;20034;-71
2022/07/12 21:23:48;;;;;;;1.35;0.88;;;28.90;55.20;;;;;;10930543;32;20054;-71
2022/07/12 21:29:51;;;;;;;3.70;1.60;;;28.90;55.50;;;;;;10943842;32;20019;-71
2022/07/12 21:35:53;;;;;;;1.42;0.90;;;28.90;55.30;;;;;;10954274;32;20416;-71
2022/07/12 21:41:56;;;;;;;1.58;0.80;;;28.90;55.40;;;;;;10957968;32;20027;-71
2022/07/12 21:48:00;;;;;;;2.10;0.85;;;28.90;55.40;;;;;;10947415;32;20399;-70
2022/07/12 21:54:03;;;;;;;1.15;0.90;;;28.90;55.40;;;;;;10944308;32;20035;-71
2022/07/12 22:00:07;;;;;;;1.00;0.60;;;28.90;55.80;;;;;;10943939;32;20035;-71
2022/07/12 22:06:08;;;;;;;0.80;0.40;;;28.90;56.20;;;;;;10945492;32;20370;-71
2022/07/12 22:12:11;;;;;;;1.30;0.80;;;28.80;56.70;;;;;;10947689;32;20014;-71
2022/07/12 22:18:13;;;;;;;0.73;0.73;;;28.80;56.80;;;;;;10942797;32;20334;-71
2022/07/12 22:24:16;;;;;;;1.10;0.73;;;28.70;57.30;;;;;;10942595;32;20041;-71
2022/07/12 22:30:18;;;;;;;1.30;0.77;;;28.60;57.60;;;;;;10942364;32;20023;-71
2022/07/12 22:36:20;;;;;;;1.55;1.08;;;28.60;57.80;;;;;;10942389;32;20054;-71
2022/07/12 22:42:23;;;;;;;2.28;1.27;;;28.60;58.00;;;;;;10941913;32;20027;-71
2022/07/12 22:48:24;;;;;;;1.87;0.75;;;28.50;58.30;;;;;;10941214;32;20355;-71
2022/07/12 22:54:27;;;;;;;0.85;0.70;;;28.50;58.20;;;;;;10944738;32;20104;-71
2022/07/12 23:00:29;;;;;;;1.60;0.82;;;28.50;58.20;;;;;;10943857;32;20019;-71
2022/07/12 23:06:31;;;;;;;0.77;0.52;;;28.50;58.30;;;;;;10943105;32;20023;-71
2022/07/12 23:12:33;;;;;;;1.45;0.75;;;28.40;58.50;;;;;;10945101;32;20015;-71
2022/07/12 23:18:35;;;;;;;0.32;0.32;;;28.30;58.50;;;;;;10945067;32;20019;-71
2022/07/12 23:24:38;;;;;;;1.73;0.62;;;28.40;58.40;;;;;;10942801;32;20031;-71
2022/07/12 23:30:40;;;;;;;0.90;0.70;;;28.40;58.30;;;;;;10940637;32;20076;-71
2022/07/12 23:36:48;;;;;;;1.37;0.85;;;28.30;58.60;;;;;;10944166;32;20052;-71
2022/07/12 23:42:50;;;;;;;;;;;28.20;58.70;;;;;;10929308;32;20551;-71
2022/07/12 23:48:52;;;;;;;1.40;0.50;;;28.10;59.00;;;;;;10943439;32;19929;-71
2022/07/12 23:54:54;;;;;;;0.43;0.43;;;28.00;59.30;;;;;;10939277;32;20068;-70
